Time;durP1;ratioP1;P1;durP2;ratioP2;P2;SDS_P1;SDS_P2;PMS_P1;PMS_P2;Temp;Humidity;BMP_temperature;BMP_pressure;BME280_temperature;BME280_humidity;BME280_pressure;Samples;Min_cycle;Max_cycle;Signal;HPM_P1;HPM_P2
2023/07/06 00:02:00;;;;;;;3.30;2.50;;;15.80;58.20;;;15.66;56.56;98041.25;5060864;28;20478;-80
2023/07/06 00:04:28;;;;;;;3.43;3.13;;;15.70;58.60;;;15.81;56.24;98060.53;5053106;28;20456;-81
2023/07/06 00:06:56;;;;;;;2.30;2.10;;;15.80;59.10;;;15.69;56.19;98057.91;5050558;28;20457;-82
2023/07/06 00:09:23;;;;;;;3.17;2.87;;;15.70;58.80;;;15.68;56.28;98050.81;5050062;28;20464;-81
2023/07/06 00:11:51;;;;;;;2.93;2.60;;;15.70;58.90;;;15.66;55.92;98049.41;5039410;28;20456;-81
2023/07/06 00:14:18;;;;;;;4.33;2.80;;;15.70;59.00;;;15.70;55.82;98050.59;5057128;28;20453;-79
2023/07/06 00:16:48;;;;;;;3.10;2.63;;;15.70;58.90;;;15.80;55.61;98049.91;5053743;28;20454;-80
2023/07/06 00:19:18;;;;;;;3.47;2.93;;;15.80;58.80;;;15.68;55.56;98041.81;5045056;28;20458;-81
2023/07/06 00:21:49;;;;;;;4.67;2.87;;;15.70;58.70;;;15.65;55.47;98036.88;5061674;28;20488;-80
2023/07/06 00:24:17;;;;;;;4.10;3.10;;;15.70;59.00;;;15.72;56.35;98041.06;5068615;28;20482;-80
2023/07/06 00:26:45;;;;;;;6.23;3.00;;;15.70;59.50;;;15.82;55.72;98064.91;5070704;28;20454;-82
2023/07/06 00:29:15;;;;;;;3.60;2.87;;;15.70;59.50;;;15.66;55.65;98038.50;5052446;28;20832;-81
2023/07/06 00:31:51;;;;;;;4.20;2.57;;;15.70;59.10;;;15.61;57.48;98054.78;5045613;28;20530;-80
2023/07/06 00:34:19;;;;;;;3.70;2.70;;;15.60;60.80;;;15.39;57.40;98052.78;5046840;28;20451;-84
2023/07/06 00:36:48;;;;;;;3.77;2.80;;;15.40;61.30;;;15.26;58.21;98056.66;5045042;28;20451;-83
2023/07/06 00:39:15;;;;;;;3.30;2.63;;;15.20;61.80;;;15.14;58.62;98054.81;5041634;28;20613;-81
2023/07/06 00:41:43;;;;;;;3.60;3.17;;;15.10;62.10;;;15.00;58.17;98070.63;5043147;28;20488;-82
2023/07/06 00:44:49;;;;;;;4.33;2.80;;;14.90;62.10;;;14.84;59.19;98044.19;5069675;28;20967;-80
2023/07/06 00:47:20;;;;;;;2.50;2.30;;;14.70;63.20;;;14.72;59.78;98046.97;5045832;28;20503;-77
2023/07/06 00:49:47;;;;;;;3.40;2.63;;;14.70;64.10;;;14.63;60.04;98048.38;5049189;28;20464;-79
2023/07/06 00:52:16;;;;;;;3.40;3.07;;;14.60;65.00;;;14.55;58.87;98049.56;5038314;28;20460;-77
2023/07/06 00:54:45;;;;;;;3.73;3.00;;;14.40;64.20;;;14.47;59.88;98050.78;5030311;28;20951;-78
2023/07/06 00:57:17;;;;;;;3.90;2.83;;;14.30;65.00;;;14.40;60.71;98045.47;5027083;28;20507;-80
2023/07/06 00:59:44;;;;;;;3.40;2.60;;;14.30;66.20;;;14.39;59.37;98038.38;5032886;28;20502;-79
2023/07/06 01:02:16;;;;;;;4.03;3.13;;;14.30;65.80;;;14.19;60.06;98016.22;5065137;28;20488;-82
2023/07/06 01:04:45;;;;;;;5.97;3.27;;;14.20;66.30;;;14.16;60.21;98029.19;5046634;28;20464;-79
2023/07/06 01:07:20;;;;;;;3.87;3.03;;;14.10;66.20;;;14.13;60.52;98043.25;5048662;28;21008;-77
2023/07/06 01:09:49;;;;;;;4.70;2.73;;;14.00;67.10;;;14.10;61.46;98040.19;5044930;28;20455;-79
2023/07/06 01:12:17;;;;;;;3.80;2.67;;;14.00;68.40;;;13.91;61.39;98031.38;5056784;28;20450;-76
2023/07/06 01:14:45;;;;;;;4.27;2.97;;;13.90;68.40;;;14.06;61.71;98039.84;5056609;28;20457;-78
2023/07/06 01:17:21;;;;;;;4.20;2.80;;;14.00;69.50;;;14.07;60.96;98036.06;5046415;28;20458;-78
2023/07/06 01:20:20;;;;;;;2.70;2.27;;;13.90;69.40;;;14.40;61.54;98050.06;5050697;28;20452;-77
2023/07/06 01:23:25;;;;;;;3.83;2.60;;;14.20;70.40;;;14.52;61.17;98048.16;5043830;28;20964;-77
2023/07/06 01:26:14;;;;;;;4.97;3.33;;;14.50;70.20;;;14.29;63.12;98040.88;5047702;28;20460;-78
2023/07/06 01:29:28;;;;;;;3.77;3.00;;;14.60;71.00;;;14.30;63.54;98050.69;5048929;28;20449;-79
2023/07/06 01:32:00;;;;;;;3.10;2.80;;;14.50;71.60;;;13.72;64.69;97991.56;5035943;28;20569;-79
2023/07/06 01:34:36;;;;;;;4.13;3.20;;;14.40;73.30;;;13.97;65.46;98055.69;5050815;28;20448;-79
2023/07/06 01:37:17;;;;;;;3.63;2.97;;;14.30;74.20;;;13.92;65.75;98061.00;5067281;28;20948;-79
2023/07/06 01:39:45;;;;;;;4.63;3.10;;;14.10;74.60;;;13.88;66.34;98055.22;5051093;28;20943;-77
2023/07/06 01:42:31;;;;;;;4.30;3.13;;;14.10;75.40;;;13.79;66.60;98053.91;5044780;28;20543;-77
2023/07/06 01:45:05;;;;;;;3.60;2.83;;;14.00;76.00;;;13.82;66.30;98061.59;5047907;28;20458;-78
2023/07/06 01:47:39;;;;;;;4.30;3.30;;;14.00;76.10;;;13.73;65.99;98049.44;5045743;28;20455;-75
2023/07/06 01:50:09;;;;;;;4.00;3.37;;;13.90;76.00;;;13.80;65.99;98044.69;5047293;28;20449;-79
2023/07/06 01:52:58;;;;;;;2.97;2.60;;;14.00;76.30;;;14.05;64.98;98059.09;5048789;28;20447;-81
2023/07/06 01:55:29;;;;;;;3.00;2.03;;;14.00;76.10;;;14.03;64.95;98046.59;5061192;28;20459;-79
2023/07/06 01:58:09;;;;;;;3.40;3.00;;;14.10;76.10;;;14.08;64.55;98064.06;5055612;28;21381;-80
2023/07/06 02:00:49;;;;;;;2.67;2.47;;;14.20;75.40;;;14.02;64.27;98060.38;5047187;28;20457;-78
2023/07/06 02:03:18;;;;;;;3.17;2.70;;;14.20;75.10;;;13.85;64.37;98061.09;5043187;28;20497;-78
2023/07/06 02:05:47;;;;;;;2.90;2.67;;;14.10;75.10;;;13.96;64.76;98077.66;5049966;28;20459;-80
2023/07/06 02:08:15;;;;;;;4.40;3.53;;;14.10;75.40;;;13.95;64.43;98059.69;5066365;28;20453;-81
2023/07/06 02:10:42;;;;;;;3.50;2.80;;;14.10;75.40;;;14.04;64.39;98061.00;5048703;28;20487;-80
2023/07/06 02:13:09;;;;;;;3.20;2.73;;;14.20;75.70;;;14.02;64.67;98063.09;5051070;28;20563;-78
2023/07/06 02:15:37;;;;;;;4.13;3.10;;;14.20;75.50;;;14.02;64.54;98060.38;5045877;28;20457;-77
2023/07/06 02:18:04;;;;;;;3.07;2.33;;;14.20;75.30;;;14.01;64.46;98061.47;5040196;28;20463;-79
2023/07/06 02:20:34;;;;;;;3.23;2.43;;;14.20;75.50;;;13.91;64.77;98058.53;5043826;28;20458;-78
2023/07/06 02:23:01;;;;;;;3.47;2.47;;;14.10;75.60;;;13.67;65.60;98055.78;5047134;28;20515;-78
2023/07/06 02:25:28;;;;;;;3.23;2.80;;;14.00;76.00;;;13.64;65.75;98062.50;5065137;28;20565;-78
2023/07/06 02:27:55;;;;;;;3.83;2.87;;;14.00;76.10;;;13.65;65.81;98058.75;5043241;28;20461;-78
2023/07/06 02:30:23;;;;;;;4.60;2.93;;;13.90;76.20;;;13.63;65.42;98062.75;5049165;28;20942;-78
2023/07/06 02:32:51;;;;;;;3.67;3.20;;;13.80;76.10;;;12.94;65.97;97969.88;5054544;28;20531;-78
2023/07/06 02:35:18;;;;;;;4.20;3.30;;;13.70;76.30;;;13.45;66.21;98056.34;5048348;28;20452;-77
2023/07/06 02:37:47;;;;;;;3.43;3.13;;;13.70;76.80;;;13.31;66.81;98056.53;5049052;28;21269;-77
2023/07/06 02:40:14;;;;;;;4.07;3.50;;;13.70;76.70;;;13.26;66.74;98063.72;5048101;28;20450;-79
2023/07/06 02:42:41;;;;;;;3.60;3.20;;;13.60;76.90;;;13.04;67.32;98048.78;5050334;28;20471;-79
2023/07/06 02:45:10;;;;;;;3.63;3.30;;;13.50;77.10;;;13.04;67.45;98056.91;5067554;28;20479;-79
2023/07/06 02:47:37;;;;;;;4.07;3.67;;;13.40;77.20;;;12.98;67.17;98047.00;5056139;28;20452;-77
2023/07/06 02:50:11;;;;;;;3.10;2.80;;;13.30;77.30;;;12.87;67.80;98047.78;5039769;28;20490;-80
2023/07/06 02:52:39;;;;;;;2.90;2.60;;;13.20;77.80;;;12.84;68.56;98056.38;5046774;28;20546;-77
2023/07/06 02:55:09;;;;;;;3.40;3.10;;;13.10;78.40;;;12.85;68.53;98053.41;5057656;28;20459;-80
2023/07/06 02:57:39;;;;;;;3.30;2.87;;;13.10;78.70;;;12.81;68.84;98059.53;5045866;28;20450;-77
2023/07/06 03:00:13;;;;;;;3.70;3.10;;;13.10;78.80;;;12.82;68.49;98058.50;5041391;28;20554;-77
2023/07/06 03:02:40;;;;;;;3.30;2.83;;;13.10;78.80;;;12.71;68.89;98062.78;5047306;28;20477;-78
2023/07/06 03:05:08;;;;;;;4.93;3.50;;;13.00;78.80;;;12.67;69.24;98054.31;5044460;28;20451;-76
2023/07/06 03:07:35;;;;;;;3.10;2.80;;;12.90;78.90;;;12.13;69.01;97972.81;5035930;28;20451;-76
2023/07/06 03:10:02;;;;;;;4.40;3.03;;;12.80;79.20;;;12.62;69.53;98046.00;5039567;28;21085;-77
2023/07/06 03:12:36;;;;;;;3.50;2.67;;;12.80;79.80;;;12.55;69.84;98050.69;5039524;28;20457;-77
2023/07/06 03:15:05;;;;;;;8.10;3.87;;;12.80;79.80;;;12.45;69.89;98062.06;5044077;28;20461;-78
2023/07/06 03:17:33;;;;;;;3.90;3.50;;;12.70;79.90;;;12.00;70.36;98011.69;5038280;28;20557;-79
2023/07/06 03:20:00;;;;;;;3.20;2.90;;;12.60;80.20;;;12.28;70.50;98064.56;5048453;28;20453;-79
2023/07/06 03:22:27;;;;;;;4.60;3.23;;;12.60;80.50;;;12.21;71.67;98061.91;5038318;28;20503;-79
2023/07/06 03:24:55;;;;;;;4.00;3.50;;;12.50;81.30;;;12.25;71.31;98065.00;5045020;28;20471;-77
2023/07/06 03:27:23;;;;;;;6.10;3.70;;;12.50;81.60;;;11.85;71.13;98002.06;5034518;28;21049;-76
2023/07/06 03:29:53;;;;;;;4.17;3.00;;;12.50;81.60;;;12.30;71.38;98062.44;5060558;28;20521;-76
2023/07/06 03:32:22;;;;;;;3.47;2.80;;;12.60;81.60;;;12.35;70.86;98061.75;5046098;28;20453;-77
2023/07/06 03:34:49;;;;;;;5.00;3.17;;;12.60;81.40;;;12.30;71.26;98070.56;5030961;28;20455;-79
2023/07/06 03:37:18;;;;;;;6.03;3.40;;;12.60;81.20;;;11.99;71.78;98073.16;5030240;28;20486;-79
2023/07/06 03:39:47;;;;;;;4.27;3.30;;;12.40;81.10;;;12.19;71.36;98083.78;5030978;28;20541;-78
2023/07/06 03:42:14;;;;;;;4.53;3.17;;;12.40;81.80;;;12.11;71.34;98086.81;5061027;28;20480;-76
2023/07/06 03:44:43;;;;;;;3.77;2.70;;;12.30;81.90;;;11.95;71.69;98088.16;5032751;28;20953;-77
2023/07/06 03:47:11;;;;;;;4.97;3.30;;;12.30;82.10;;;11.87;72.84;98081.16;5049376;28;20439;-78
2023/07/06 03:49:38;;;;;;;3.80;2.87;;;12.20;82.60;;;11.82;72.86;98089.13;5033574;28;20458;-76
2023/07/06 03:52:07;;;;;;;5.00;3.17;;;12.10;83.00;;;12.00;72.42;98090.22;5048610;28;20456;-77
2023/07/06 03:54:34;;;;;;;3.17;2.63;;;12.10;82.90;;;11.87;72.45;98092.00;5051622;28;20461;-75
2023/07/06 03:57:05;;;;;;;4.20;3.13;;;12.10;82.60;;;12.03;71.58;98084.38;5063925;28;20463;-77
2023/07/06 03:59:33;;;;;;;4.33;3.37;;;12.10;82.90;;;11.93;72.42;98090.28;5033276;28;20478;-77
2023/07/06 04:02:01;;;;;;;2.70;2.50;;;12.20;82.80;;;12.08;71.23;98095.38;5032561;28;20481;-77
2023/07/06 04:04:31;;;;;;;3.57;2.87;;;12.30;82.40;;;12.04;71.20;98075.19;5034720;28;20485;-78
2023/07/06 04:06:58;;;;;;;6.27;3.20;;;12.40;82.10;;;12.31;70.25;98096.59;5034732;28;20862;-78
2023/07/06 04:09:28;;;;;;;4.13;3.40;;;12.50;81.20;;;12.45;69.79;98076.44;5036946;28;20809;-79
2023/07/06 04:11:55;;;;;;;6.37;3.70;;;12.70;80.90;;;13.14;67.91;98096.22;5034115;28;20476;-76
2023/07/06 04:14:24;;;;;;;4.50;3.07;;;13.30;79.80;;;13.79;65.11;98105.50;5045895;28;20454;-80
2023/07/06 04:16:52;;;;;;;3.53;3.00;;;14.00;77.70;;;14.57;62.21;98099.09;5042968;28;20956;-78
2023/07/06 04:19:19;;;;;;;4.30;2.87;;;14.70;75.80;;;14.94;60.52;98097.97;5041952;28;20599;-78
2023/07/06 04:21:48;;;;;;;3.67;3.03;;;15.30;74.00;;;15.30;59.01;98085.84;5051244;28;20498;-78
2023/07/06 04:24:16;;;;;;;5.60;2.90;;;15.70;72.80;;;15.65;57.87;98086.72;5043227;28;20987;-78
2023/07/06 04:26:45;;;;;;;3.60;2.63;;;16.20;71.30;;;15.79;58.06;98102.75;5043070;28;20457;-79
2023/07/06 04:29:12;;;;;;;3.23;2.90;;;16.40;70.50;;;15.94;56.99;98089.41;5049634;28;20466;-79
2023/07/06 04:31:40;;;;;;;3.90;3.03;;;16.80;69.00;;;16.25;56.54;98091.75;5040547;28;20449;-78
2023/07/06 04:34:08;;;;;;;5.97;3.30;;;16.90;68.50;;;16.53;55.18;98098.13;5047415;28;20487;-78
2023/07/06 04:36:35;;;;;;;5.00;3.47;;;17.20;67.10;;;16.49;55.35;98094.25;5049855;28;20456;-79
2023/07/06 04:39:07;;;;;;;3.40;3.10;;;17.10;67.10;;;17.91;53.29;98090.84;5045511;28;20459;-77
2023/07/06 04:41:37;;;;;;;3.37;3.00;;;17.90;67.60;;;17.97;50.61;98087.88;5041266;28;21008;-74
2023/07/06 04:44:06;;;;;;;2.87;2.53;;;18.50;63.70;;;16.91;53.56;98099.16;5039259;28;20481;-76
2023/07/06 04:46:33;;;;;;;3.27;2.73;;;17.90;63.30;;;16.77;54.15;98100.63;5038267;28;21242;-75
2023/07/06 04:49:01;;;;;;;5.70;2.90;;;17.70;63.80;;;16.72;54.14;98104.09;5032545;28;20462;-77
2023/07/06 04:51:28;;;;;;;3.93;2.70;;;17.70;63.90;;;17.93;51.98;98089.50;5036407;28;21246;-77
2023/07/06 04:53:56;;;;;;;2.83;2.13;;;18.20;63.70;;;19.37;48.79;98071.28;5035223;28;20713;-75
2023/07/06 04:56:25;;;;;;;4.10;3.30;;;19.50;62.70;;;19.51;46.92;98074.31;5034733;28;20468;-76
2023/07/06 04:58:53;;;;;;;3.60;2.80;;;20.00;59.50;;;20.00;46.24;98074.88;5040038;28;20278;-76
2023/07/06 05:01:23;;;;;;;4.13;3.40;;;20.20;58.80;;;21.39;42.67;98092.78;5029335;28;20462;-76
2023/07/06 05:03:52;;;;;;;4.27;3.23;;;21.30;57.20;;;20.94;43.36;98082.59;5013104;28;20578;-77
2023/07/06 05:06:19;;;;;;;3.90;2.77;;;21.40;55.80;;;21.81;41.74;98087.00;5043133;28;20442;-75
2023/07/06 05:08:49;;;;;;;5.70;2.97;;;21.80;55.20;;;21.83;41.33;98084.78;5042442;28;20541;-78
2023/07/06 05:11:17;;;;;;;3.33;2.73;;;22.10;54.20;;;22.29;40.17;98064.25;5033268;28;20459;-76
2023/07/06 05:13:46;;;;;;;3.60;3.13;;;22.60;53.50;;;21.42;41.74;98083.97;5035245;28;20456;-75
2023/07/06 05:16:15;;;;;;;3.60;2.70;;;22.20;53.00;;;21.51;40.63;98027.28;5039140;28;21491;-78
2023/07/06 05:18:43;;;;;;;4.30;3.90;;;22.50;52.80;;;20.79;42.22;98044.19;5032731;28;20807;-76
2023/07/06 05:21:10;;;;;;;5.23;2.93;;;21.80;52.80;;;21.36;43.28;98074.91;5036086;28;20484;-77
2023/07/06 05:23:37;;;;;;;3.10;2.80;;;21.60;54.00;;;21.48;42.99;98093.81;5026497;28;20834;-75
2023/07/06 05:26:05;;;;;;;2.60;2.40;;;21.70;53.50;;;20.12;44.46;98091.88;5038473;28;20549;-78
2023/07/06 05:28:32;;;;;;;2.30;2.07;;;21.40;52.90;;;21.14;42.82;98093.75;5031464;28;20457;-75
2023/07/06 05:31:03;;;;;;;4.10;2.67;;;21.20;53.50;;;21.21;42.26;98086.84;5032100;28;20535;-74
2023/07/06 05:33:32;;;;;;;4.00;2.90;;;21.50;53.20;;;21.03;42.44;98090.25;5026014;28;21281;-75
2023/07/06 05:36:00;;;;;;;6.30;3.63;;;21.70;52.50;;;20.69;43.64;98093.63;5036110;28;20453;-76
2023/07/06 05:38:27;;;;;;;6.00;4.33;;;21.30;52.70;;;21.16;42.98;98097.88;5061177;28;20470;-76
2023/07/06 05:40:54;;;;;;;9.97;5.87;;;21.30;53.00;;;20.42;43.59;98100.34;5031472;28;20475;-78
2023/07/06 05:43:23;;;;;;;7.80;4.90;;;21.20;52.50;;;20.72;43.30;98098.59;5042235;28;20472;-77
2023/07/06 05:45:51;;;;;;;4.20;3.80;;;21.10;53.00;;;20.16;44.06;98100.38;5042068;28;20550;-78
2023/07/06 05:48:20;;;;;;;4.87;3.47;;;20.90;52.50;;;20.43;43.57;98108.28;5041704;28;20825;-77
2023/07/06 05:50:47;;;;;;;5.37;3.90;;;21.30;52.50;;;20.56;42.86;98101.41;5035673;28;20518;-77
2023/07/06 05:53:14;;;;;;;3.63;3.27;;;21.50;52.00;;;21.38;41.91;98113.13;5038179;28;20462;-77
2023/07/06 05:55:43;;;;;;;5.00;4.07;;;21.90;51.90;;;21.43;41.33;98113.06;5038220;28;20444;-78
2023/07/06 05:58:10;;;;;;;8.10;4.60;;;22.20;51.60;;;22.15;40.19;98109.00;5035435;28;20443;-80
2023/07/06 06:00:41;;;;;;;5.80;3.40;;;22.60;51.50;;;21.82;40.70;98118.91;5038619;28;20809;-79
2023/07/06 06:03:08;;;;;;;5.60;3.43;;;22.50;51.30;;;21.74;41.27;98123.88;5035065;28;20570;-78
2023/07/06 06:05:37;;;;;;;8.17;4.40;;;22.90;51.00;;;20.77;42.99;98117.78;5032629;28;20460;-79
2023/07/06 06:08:05;;;;;;;10.33;4.40;;;21.90;51.30;;;20.89;42.99;98126.56;5066074;28;20469;-78
2023/07/06 06:10:33;;;;;;;4.03;2.90;;;21.70;51.50;;;20.53;44.30;98134.84;5067827;28;20446;-79
2023/07/06 06:13:00;;;;;;;4.17;3.30;;;21.60;52.30;;;21.37;42.12;98127.97;5039293;28;20459;-79
2023/07/06 06:15:27;;;;;;;9.23;3.13;;;21.80;51.80;;;21.99;41.28;98123.97;5032002;28;20447;-80
2023/07/06 06:17:55;;;;;;;3.20;2.80;;;22.50;51.80;;;22.73;39.18;98118.31;5054414;28;20454;-80
2023/07/06 06:20:22;;;;;;;4.17;2.83;;;22.90;51.10;;;21.73;41.40;98127.75;5043332;28;20465;-79
2023/07/06 06:22:51;;;;;;;5.63;2.70;;;22.80;50.90;;;21.87;40.58;98132.59;5034515;28;20452;-79
2023/07/06 06:25:19;;;;;;;4.00;3.60;;;22.70;50.70;;;21.35;41.38;98138.44;5041325;28;20515;-80
2023/07/06 06:27:47;;;;;;;5.30;2.90;;;22.20;50.60;;;22.35;39.98;98116.19;5035020;28;20463;-81
2023/07/06 06:30:15;;;;;;;5.50;3.00;;;22.70;51.00;;;22.73;39.96;98131.28;5035410;28;20508;-81
2023/07/06 06:32:43;;;;;;;5.57;3.03;;;23.20;51.00;;;21.20;43.08;98142.06;5032276;28;20467;-79
2023/07/06 06:35:25;;;;;;;8.83;3.90;;;22.50;50.90;;;19.39;45.92;98151.28;5065960;28;20468;-80
2023/07/06 06:37:54;;;;;;;5.53;3.50;;;20.60;51.40;;;18.87;47.42;98150.25;5035274;28;20462;-80
2023/07/06 06:40:23;;;;;;;3.30;3.00;;;19.50;52.80;;;18.50;48.59;98136.38;5034716;28;20456;-81
2023/07/06 06:42:50;;;;;;;3.83;3.30;;;18.90;53.60;;;18.27;49.06;98140.31;5034875;28;20965;-80
2023/07/06 06:45:19;;;;;;;5.80;3.20;;;18.70;54.30;;;18.48;48.95;98154.16;5038696;28;20837;-78
2023/07/06 06:47:47;;;;;;;3.93;3.13;;;18.50;54.60;;;18.50;48.98;98147.34;5028740;28;20454;-79
2023/07/06 06:50:16;;;;;;;6.07;3.70;;;18.70;55.20;;;18.82;47.66;98149.13;5036623;28;20442;-80
2023/07/06 06:52:44;;;;;;;3.87;2.87;;;18.80;54.80;;;18.97;47.48;98144.81;5041292;28;20800;-80
2023/07/06 06:55:12;;;;;;;3.07;2.77;;;19.10;54.90;;;18.99;47.22;98148.16;5042598;28;20509;-79
2023/07/06 06:57:40;;;;;;;3.37;3.07;;;19.10;54.30;;;18.93;47.67;98147.25;5064939;28;20450;-81
2023/07/06 07:00:14;;;;;;;5.03;3.10;;;19.10;54.70;;;18.47;48.23;98152.50;5061650;28;20538;-80
2023/07/06 07:02:41;;;;;;;4.43;3.17;;;18.80;54.50;;;18.64;48.36;98147.66;5028650;28;20453;-75
2023/07/06 07:05:10;;;;;;;3.10;2.80;;;18.80;54.90;;;18.86;48.13;98143.94;5046427;28;20481;-76
2023/07/06 07:07:38;;;;;;;2.87;2.60;;;18.90;55.00;;;19.00;47.71;98147.06;5032014;28;20579;-81
2023/07/06 07:10:09;;;;;;;4.03;3.40;;;19.10;54.90;;;19.04;47.33;98150.91;5048280;28;20515;-87
2023/07/06 07:12:42;;;;;;;7.00;3.10;;;19.20;54.60;;;18.83;47.40;98106.16;5034729;28;20527;-81
2023/07/06 07:15:13;;;;;;;3.40;3.10;;;19.20;54.70;;;19.10;47.43;98138.84;5031282;28;21112;-84
2023/07/06 07:17:41;;;;;;;4.00;2.83;;;19.20;54.70;;;18.92;47.91;98139.31;5032391;28;20598;-83
2023/07/06 07:20:10;;;;;;;5.10;2.90;;;19.20;54.80;;;18.96;47.25;98132.22;5029647;28;20480;-83
2023/07/06 07:22:38;;;;;;;3.20;2.90;;;19.10;54.40;;;19.14;46.75;98124.66;5023682;28;20456;-82
2023/07/06 07:25:08;;;;;;;3.73;2.60;;;19.30;54.40;;;19.40;46.50;98134.56;5031744;28;20481;-82
2023/07/06 07:27:36;;;;;;;5.17;3.03;;;19.40;54.40;;;19.14;46.83;98089.06;5044308;28;20458;-83
2023/07/06 07:30:06;;;;;;;3.30;2.47;;;19.60;54.60;;;19.75;45.68;98088.28;5063395;28;20452;-83
2023/07/06 07:32:34;;;;;;;3.60;2.73;;;19.90;54.50;;;20.25;44.24;98134.38;5042222;28;20464;-84
2023/07/06 07:35:01;;;;;;;4.07;2.73;;;20.20;53.70;;;20.53;43.60;98138.44;5066772;28;20503;-86
2023/07/06 07:37:29;;;;;;;4.83;2.37;;;20.40;53.40;;;20.19;44.49;98140.97;5068082;28;20467;-84
2023/07/06 07:39:57;;;;;;;3.67;2.60;;;20.40;53.20;;;20.36;44.48;98138.72;5063316;28;20934;-82
2023/07/06 07:42:25;;;;;;;3.50;2.20;;;20.40;53.50;;;20.37;43.86;98121.16;5055194;28;20450;-85
2023/07/06 07:44:53;;;;;;;3.23;2.60;;;20.50;53.00;;;20.67;43.36;98135.09;5060317;28;20494;-83
2023/07/06 07:47:22;;;;;;;2.70;2.50;;;20.70;52.80;;;20.61;42.94;98139.78;5065640;28;20456;-84
2023/07/06 07:49:50;;;;;;;4.20;2.43;;;20.70;52.60;;;20.55;43.20;98129.09;5090810;28;20446;-82
2023/07/06 07:52:19;;;;;;;2.70;2.30;;;20.70;52.70;;;20.58;43.27;98147.75;5044707;28;20450;-83
2023/07/06 07:54:47;;;;;;;3.47;2.47;;;20.60;52.50;;;20.33;43.01;98125.56;5041610;28;20458;-82
2023/07/06 07:57:15;;;;;;;3.73;2.37;;;20.60;52.20;;;20.73;42.49;98138.66;5046043;28;20497;-81
2023/07/06 07:59:43;;;;;;;2.80;2.40;;;20.70;52.30;;;20.77;41.68;98117.78;5059449;28;20441;-82
2023/07/06 08:02:10;;;;;;;3.25;2.67;;;20.80;51.80;;;20.93;41.87;98135.06;5039001;28;20443;-82
2023/07/06 08:04:39;;;;;;;4.07;2.20;;;21.00;51.70;;;21.22;40.87;98137.94;5076920;28;20215;-82
2023/07/06 08:07:07;;;;;;;4.73;2.33;;;21.10;51.30;;;21.13;40.93;98131.38;5068450;28;20916;-84
2023/07/06 08:09:34;;;;;;;3.10;2.57;;;21.20;51.20;;;21.20;41.19;98139.31;5066343;28;20955;-75
2023/07/06 08:12:03;;;;;;;5.03;2.50;;;21.20;51.40;;;21.27;40.74;98144.50;5026512;28;20466;-83
2023/07/06 08:14:37;;;;;;;3.10;2.17;;;21.20;51.00;;;21.28;40.02;98133.25;5045330;28;20458;-83
2023/07/06 08:17:06;;;;;;;4.30;2.37;;;21.20;50.50;;;21.14;40.05;98135.75;5036457;28;20453;-84
2023/07/06 08:19:33;;;;;;;3.33;2.27;;;21.20;50.20;;;20.97;40.51;98138.03;5041035;28;20446;-83
2023/07/06 08:22:03;;;;;;;6.00;2.37;;;21.10;50.30;;;21.29;40.76;98114.81;5043800;28;21483;-82
2023/07/06 08:24:30;;;;;;;6.63;2.23;;;21.30;50.80;;;21.28;39.27;98093.94;5044755;28;20544;-84
2023/07/06 08:26:59;;;;;;;4.30;1.80;;;21.50;49.90;;;20.61;38.70;98070.34;5069231;28;20444;-76
2023/07/06 08:29:26;;;;;;;2.50;1.60;;;21.30;48.80;;;21.12;38.44;98096.78;5050185;28;20220;-81
2023/07/06 08:31:56;;;;;;;3.63;1.90;;;21.30;49.00;;;21.16;38.04;98130.00;5084977;28;20520;-84
2023/07/06 08:34:26;;;;;;;1.27;1.17;;;21.30;48.40;;;21.57;38.21;98120.69;5059317;28;20485;-85
2023/07/06 08:36:54;;;;;;;4.13;2.03;;;21.50;48.90;;;21.68;38.45;98125.03;5056117;28;20430;-81
2023/07/06 08:39:25;;;;;;;2.13;1.80;;;21.70;49.20;;;21.77;37.94;98131.59;5065601;28;21120;-86
2023/07/06 08:41:57;;;;;;;3.53;3.13;;;21.80;49.20;;;21.64;38.17;98135.75;5086287;28;20450;-82
2023/07/06 08:44:24;;;;;;;5.57;2.27;;;21.80;48.70;;;21.81;37.51;98134.56;5034413;28;20470;-83
2023/07/06 08:46:55;;;;;;;5.40;2.40;;;21.90;48.30;;;21.78;38.39;98130.47;5044517;28;20457;-84
2023/07/06 08:49:31;;;;;;;2.20;1.80;;;21.90;48.80;;;22.01;37.39;98122.56;5032552;28;20520;-82
2023/07/06 08:52:03;;;;;;;2.03;1.83;;;22.00;48.60;;;22.06;37.65;98121.72;5031707;28;20492;-85
2023/07/06 08:54:36;;;;;;;2.50;1.87;;;22.10;48.60;;;21.98;37.54;98101.16;5060979;28;20543;-84
2023/07/06 08:57:14;;;;;;;2.37;1.93;;;22.10;48.60;;;21.81;37.73;98117.25;5042622;28;20462;-84
2023/07/06 08:59:44;;;;;;;2.37;2.17;;;22.00;48.30;;;21.71;38.27;98124.47;5037477;28;20585;-84
2023/07/06 09:02:18;;;;;;;2.90;2.37;;;21.90;48.40;;;21.41;38.90;98120.78;5031510;28;20472;-86
2023/07/06 09:04:47;;;;;;;2.37;1.97;;;21.70;48.60;;;21.83;37.79;98115.03;5030320;28;20477;-83
2023/07/06 09:07:17;;;;;;;2.03;1.83;;;21.80;48.30;;;22.05;38.32;98109.88;5044307;28;20473;-84
2023/07/06 09:09:50;;;;;;;2.83;1.83;;;22.00;48.70;;;22.58;37.45;98112.97;5039800;28;20450;-83
2023/07/06 09:12:25;;;;;;;1.97;1.70;;;22.40;48.80;;;22.69;37.05;98075.16;5035544;28;20453;-83
2023/07/06 09:14:58;;;;;;;3.30;2.30;;;22.80;48.70;;;22.60;36.17;98062.03;5038914;28;20460;-84
2023/07/06 09:17:28;;;;;;;2.30;2.10;;;23.00;47.90;;;23.09;36.02;98108.78;5073265;28;20460;-84
2023/07/06 09:19:57;;;;;;;2.60;2.40;;;23.00;48.00;;;23.49;35.78;98114.88;5041487;28;20478;-84
2023/07/06 09:22:27;;;;;;;2.30;2.00;;;23.40;48.30;;;23.67;35.53;98090.34;5052043;28;20453;-84
2023/07/06 09:25:01;;;;;;;3.20;2.30;;;23.70;48.20;;;23.99;34.94;98107.22;5051161;28;20467;-84
2023/07/06 09:27:29;;;;;;;2.40;2.03;;;24.00;47.80;;;23.89;34.78;98110.97;5046996;28;21017;-84
2023/07/06 09:30:00;;;;;;;2.87;2.23;;;24.00;47.40;;;23.42;34.62;98062.03;5051133;28;20519;-84
2023/07/06 09:32:29;;;;;;;2.60;2.20;;;23.90;47.00;;;23.99;34.43;98118.25;5041472;28;20465;-85
2023/07/06 09:35:06;;;;;;;2.33;2.10;;;23.90;47.30;;;24.06;35.24;98099.38;5038389;28;20467;-80
2023/07/06 09:37:33;;;;;;;2.77;2.40;;;24.00;47.80;;;23.98;34.85;98109.13;5034601;28;20464;-80
2023/07/06 09:40:06;;;;;;;1.90;1.80;;;24.00;47.40;;;23.96;34.51;98110.56;5061067;28;20455;-81
2023/07/06 09:42:35;;;;;;;2.07;1.87;;;23.90;47.10;;;23.99;34.73;98102.50;5040270;28;20534;-84
2023/07/06 09:45:25;;;;;;;2.37;1.97;;;24.10;47.20;;;24.25;34.79;98095.72;5051362;28;20480;-85
2023/07/06 09:47:57;;;;;;;2.60;2.30;;;24.30;47.50;;;23.72;35.28;98101.28;5051289;28;20463;-84
2023/07/06 09:50:35;;;;;;;2.10;1.90;;;24.00;47.20;;;24.32;34.78;98105.25;5038200;28;20457;-86
2023/07/06 09:53:07;;;;;;;3.10;1.93;;;24.10;47.30;;;24.82;33.26;98103.78;5063510;28;20480;-86
2023/07/06 09:55:37;;;;;;;3.47;1.80;;;24.60;46.90;;;25.00;33.02;98104.78;5055266;28;20454;-87
2023/07/06 09:58:15;;;;;;;4.83;2.23;;;25.00;46.50;;;24.40;33.72;98100.97;5039915;28;21248;-86
2023/07/06 10:00:55;;;;;;;3.53;1.60;;;24.70;46.20;;;24.65;33.72;98098.03;5034330;28;20462;-85
2023/07/06 10:03:42;;;;;;;1.93;1.73;;;24.60;46.90;;;24.39;34.02;98104.06;5034128;28;20468;-85
2023/07/06 10:06:26;;;;;;;2.37;1.87;;;24.50;46.40;;;23.25;34.68;98092.03;5046937;28;20440;-87
2023/07/06 10:08:59;;;;;;;2.73;2.10;;;24.10;45.90;;;23.32;35.61;98109.06;5069946;28;20446;-85
2023/07/06 10:11:39;;;;;;;2.27;2.07;;;23.70;46.60;;;23.21;34.35;98048.53;5050622;28;20451;-84
2023/07/06 10:14:21;;;;;;;1.50;1.40;;;23.50;46.20;;;23.81;33.75;98092.31;5033310;28;20461;-85
2023/07/06 10:17:01;;;;;;;2.20;1.77;;;23.70;46.10;;;24.12;33.25;98105.63;5046818;28;20479;-84
2023/07/06 10:19:33;;;;;;;2.00;1.83;;;24.00;45.80;;;24.70;33.19;98098.72;5049302;28;20547;-83
2023/07/06 10:22:13;;;;;;;2.70;1.87;;;24.40;46.20;;;24.82;31.73;98098.28;5040483;28;20751;-83
2023/07/06 10:24:48;;;;;;;2.47;2.03;;;24.70;45.20;;;25.17;31.95;98098.63;5063196;28;20474;-85
2023/07/06 10:27:24;;;;;;;3.13;2.37;;;25.10;45.60;;;24.50;31.89;98075.13;5080041;28;20485;-85
2023/07/06 10:29:56;;;;;;;5.33;1.77;;;24.80;44.50;;;24.56;31.86;98095.97;5055248;28;20452;-84
2023/07/06 10:32:28;;;;;;;3.70;2.13;;;24.80;44.80;;;23.97;32.67;98085.44;5050158;28;20533;-86
2023/07/06 10:35:03;;;;;;;2.77;1.80;;;24.40;44.70;;;24.29;32.73;98092.06;5049833;28;20465;-84